Time;durP1;ratioP1;P1;durP2;ratioP2;P2;SDS_P1;SDS_P2;PMS_P1;PMS_P2;Temp;Humidity;BMP_temperature;BMP_pressure;BME280_temperature;BME280_humidity;BME280_pressure;Samples;Min_cycle;Max_cycle;Signal;HPM_P1;HPM_P2
2022/01/23 00:02:27;;;;;;;30.67;16.98;;;3.90;99.90;;;;;;5032241;28;20416;-68
2022/01/23 00:04:55;;;;;;;28.92;16.40;;;3.90;99.90;;;;;;5031771;28;20045;-67
2022/01/23 00:07:23;;;;;;;26.65;16.10;;;3.90;99.90;;;;;;5030970;28;20053;-68
2022/01/23 00:09:50;;;;;;;27.83;17.02;;;3.90;99.90;;;;;;5036515;28;20574;-66
2022/01/23 00:12:22;;;;;;;31.40;17.45;;;3.90;99.90;;;;;;5035092;28;20055;-67
2022/01/23 00:17:36;;;;;;;29.77;16.48;;;3.90;99.90;;;;;;5025600;28;20499;-67
2022/01/23 00:20:12;;;;;;;26.95;15.70;;;3.90;99.90;;;;;;5031423;28;20111;-67
2022/01/23 00:30:43;;;;;;;32.22;16.80;;;3.90;99.90;;;;;;5031863;28;20045;-67
2022/01/23 00:33:12;;;;;;;27.30;15.85;;;3.90;99.90;;;;;;5030455;28;20065;-67
2022/01/23 00:35:41;;;;;;;29.60;15.73;;;3.90;99.90;;;;;;5030889;28;20048;-68
2022/01/23 00:38:10;;;;;;;30.13;17.00;;;3.90;99.90;;;;;;5033149;28;20034;-66
2022/01/23 00:40:40;;;;;;;25.63;14.73;;;4.00;99.90;;;;;;5029892;28;20045;-66
2022/01/23 00:43:26;;;;;;;28.55;15.88;;;4.00;99.90;;;;;;5031063;28;20049;-68
2022/01/23 00:46:09;;;;;;;26.92;15.85;;;3.90;99.90;;;;;;5031941;28;20099;-67
2022/01/23 00:48:42;;;;;;;26.83;15.60;;;4.00;99.90;;;;;;5029228;28;20049;-67
2022/01/23 00:51:10;;;;;;;25.67;16.45;;;4.00;99.90;;;;;;5031382;28;20038;-67
2022/01/23 00:53:37;;;;;;;29.67;16.88;;;4.00;99.90;;;;;;5031494;28;20041;-67
2022/01/23 00:56:05;;;;;;;27.10;16.30;;;3.90;99.90;;;;;;5029027;28;20160;-67
2022/01/23 00:58:32;;;;;;;31.98;17.20;;;4.00;99.90;;;;;;5030398;28;20041;-67
2022/01/23 01:01:00;;;;;;;25.02;15.70;;;3.90;99.90;;;;;;5031563;28;20453;-67
2022/01/23 01:03:28;;;;;;;28.52;16.08;;;3.90;99.90;;;;;;5031289;28;20042;-67
2022/01/23 01:05:56;;;;;;;32.13;17.88;;;3.90;99.90;;;;;;5013953;28;20439;-67
2022/01/23 01:08:23;;;;;;;31.77;17.52;;;4.00;99.90;;;;;;5029013;28;20053;-67
2022/01/23 01:11:54;;;;;;;29.80;16.58;;;3.90;99.90;;;;;;5030328;28;20045;-68
2022/01/23 01:33:10;;;;;;;34.88;17.83;;;3.90;99.90;;;;;;5030923;28;20046;-67
2022/01/23 01:35:48;;;;;;;32.38;17.50;;;3.90;99.90;;;;;;5034579;28;20041;-67
2022/01/23 01:38:16;;;;;;;30.85;17.35;;;3.90;99.90;;;;;;5034743;28;20073;-67
2022/01/23 01:40:44;;;;;;;31.83;18.25;;;3.90;99.90;;;;;;5031113;28;20072;-67
2022/01/23 01:43:12;;;;;;;33.92;18.70;;;3.80;99.90;;;;;;5029326;28;20120;-67
2022/01/23 01:45:41;;;;;;;30.95;17.98;;;3.80;99.90;;;;;;5030951;28;20111;-67
2022/01/23 01:48:21;;;;;;;34.17;17.60;;;3.80;99.90;;;;;;5029206;28;20057;-66
2022/01/23 01:50:54;;;;;;;32.53;17.83;;;3.80;99.90;;;;;;5028975;28;20470;-68
2022/01/23 01:53:25;;;;;;;32.70;17.10;;;3.80;99.90;;;;;;5029646;28;20289;-67
2022/01/23 01:55:56;;;;;;;31.02;17.67;;;3.80;99.90;;;;;;5034833;28;20736;-67
2022/01/23 02:09:42;;;;;;;28.75;16.15;;;3.80;99.90;;;;;;5020463;28;20127;-67
2022/01/23 02:12:40;;;;;;;30.45;16.92;;;3.80;99.90;;;;;;5030186;28;20045;-67
2022/01/23 02:51:07;;;;;;;35.58;17.65;;;3.90;99.90;;;;;;5035128;28;20041;-67
2022/01/23 02:56:19;;;;;;;30.23;16.38;;;3.90;99.90;;;;;;5031678;28;20354;-68
2022/01/23 02:58:59;;;;;;;33.03;18.73;;;3.80;99.90;;;;;;5009093;28;20484;-67
2022/01/23 03:01:33;;;;;;;33.17;17.67;;;3.80;99.90;;;;;;5031209;28;20052;-67
2022/01/23 03:04:48;;;;;;;30.83;17.65;;;3.80;99.90;;;;;;5045977;28;20557;-67
2022/01/23 03:10:33;;;;;;;31.55;17.10;;;3.80;99.90;;;;;;5038518;28;20056;-66
2022/01/23 03:27:05;;;;;;;32.85;18.25;;;3.80;99.90;;;;;;5022833;28;20072;-68
2022/01/23 03:32:22;;;;;;;33.78;19.00;;;3.70;99.90;;;;;;5042744;28;20252;-68
2022/01/23 03:34:50;;;;;;;;;;;3.70;99.90;;;;;;5032913;28;20046;-67
2022/01/23 03:37:17;;;;;;;31.50;16.83;;;3.70;99.90;;;;;;4985004;28;19951;-67
2022/01/23 03:39:45;;;;;;;32.47;16.95;;;3.70;99.90;;;;;;4990803;28;20050;-67
2022/01/23 03:42:12;;;;;;;34.60;17.95;;;3.60;99.90;;;;;;4994443;28;20054;-69
2022/01/23 03:44:49;;;;;;;35.55;18.00;;;3.60;99.90;;;;;;4989832;28;20038;-68
2022/01/23 03:47:34;;;;;;;37.72;19.58;;;3.60;99.90;;;;;;4983283;28;20065;-67
2022/01/23 03:50:02;;;;;;;34.75;18.05;;;3.60;99.90;;;;;;5000949;28;20527;-68
2022/01/23 03:52:36;;;;;;;34.90;18.50;;;3.60;99.90;;;;;;4985360;28;20185;-67
2022/01/23 03:55:06;;;;;;;35.47;18.15;;;3.60;99.90;;;;;;4989873;28;20174;-67
2022/01/23 03:57:35;;;;;;;34.75;17.25;;;3.60;99.90;;;;;;4970409;28;20046;-67
2022/01/23 04:00:06;;;;;;;32.38;18.02;;;3.50;99.90;;;;;;4981510;28;20062;-67
2022/01/23 04:02:40;;;;;;;37.50;18.02;;;3.50;99.90;;;;;;5027695;28;20149;-67
2022/01/23 04:05:14;;;;;;;33.70;17.73;;;3.60;99.90;;;;;;5040248;28;20496;-67
2022/01/23 04:07:43;;;;;;;29.35;16.63;;;3.60;99.90;;;;;;5030269;28;20548;-67
2022/01/23 04:10:12;;;;;;;34.25;17.85;;;3.60;99.90;;;;;;5035657;28;20516;-67
2022/01/23 04:13:13;;;;;;;30.85;17.00;;;3.60;99.90;;;;;;5012495;28;20072;-68
2022/01/23 04:15:48;;;;;;;30.58;16.10;;;3.60;99.90;;;;;;5035024;28;20046;-67
2022/01/23 04:31:45;;;;;;;31.83;16.35;;;3.60;99.90;;;;;;5037725;28;20048;-68
2022/01/23 04:32:22;;;;;;;36.58;17.75;;;3.70;99.90;;;;;;5019574;28;20103;-67
2022/01/23 04:45:51;;;;;;;34.88;18.02;;;3.60;99.90;;;;;;5035158;28;20484;-68
2022/01/23 04:59:38;;;;;;;31.85;17.38;;;3.50;99.90;;;;;;5022595;28;20045;-67
2022/01/23 05:05:01;;;;;;;33.47;18.35;;;3.50;99.90;;;;;;4989816;28;20103;-66
2022/01/23 05:07:34;;;;;;;37.17;18.35;;;3.50;99.90;;;;;;4999340;28;20057;-68
2022/01/23 05:10:10;;;;;;;34.45;17.90;;;3.50;99.90;;;;;;4972382;28;20137;-68
2022/01/23 05:12:42;;;;;;;37.00;17.98;;;3.50;99.90;;;;;;4978761;28;20050;-68
2022/01/23 05:15:11;;;;;;;37.95;19.48;;;3.50;99.90;;;;;;5021220;28;20042;-67
2022/01/23 05:17:39;;;;;;;35.72;17.63;;;3.40;99.90;;;;;;5019779;28;20505;-67
2022/01/23 05:20:07;;;;;;;35.40;18.42;;;3.50;99.90;;;;;;5003967;28;20046;-67
2022/01/23 05:22:43;;;;;;;34.17;18.20;;;3.40;99.90;;;;;;5003213;28;20157;-69
2022/01/23 05:25:18;;;;;;;35.90;19.42;;;3.40;99.90;;;;;;5004935;28;20045;-68
2022/01/23 05:27:46;;;;;;;34.20;17.48;;;3.50;99.90;;;;;;4998492;28;20520;-68
2022/01/23 05:30:14;;;;;;;36.67;19.20;;;3.50;99.90;;;;;;5001904;28;20179;-67
2022/01/23 05:32:42;;;;;;;34.63;18.88;;;3.50;99.90;;;;;;4989502;28;20054;-69
2022/01/23 05:35:12;;;;;;;35.35;18.83;;;3.50;99.90;;;;;;4991033;28;20164;-68
2022/01/23 05:37:41;;;;;;;36.40;19.13;;;3.50;99.90;;;;;;4954739;28;20051;-69
2022/01/23 05:40:14;;;;;;;;;;;3.50;99.90;;;;;;5001255;28;20097;-68
2022/01/23 05:42:44;;;;;;;37.47;18.47;;;3.40;99.90;;;;;;5011406;28;19932;-69
2022/01/23 05:45:12;;;;;;;33.42;17.85;;;3.40;99.90;;;;;;5026178;28;20049;-67
2022/01/23 05:48:02;;;;;;;35.38;18.60;;;3.40;99.90;;;;;;5004513;28;20049;-69
2022/01/23 05:50:42;;;;;;;38.63;18.98;;;3.40;99.90;;;;;;4993334;28;20061;-69
2022/01/23 05:53:39;;;;;;;37.45;18.30;;;3.50;99.90;;;;;;5005606;28;20512;-68
2022/01/23 05:56:26;;;;;;;33.80;17.98;;;3.50;99.90;;;;;;5014376;28;20504;-68
2022/01/23 05:59:14;;;;;;;35.90;19.08;;;3.50;99.90;;;;;;5017689;28;20080;-68
2022/01/23 06:01:46;;;;;;;38.63;19.75;;;3.50;99.90;;;;;;4992208;28;20057;-68
2022/01/23 06:04:19;;;;;;;36.97;18.45;;;3.40;99.90;;;;;;4987354;28;20060;-68
2022/01/23 06:06:59;;;;;;;36.65;18.35;;;3.40;99.90;;;;;;4984061;28;20629;-68
2022/01/23 06:09:27;;;;;;;34.85;18.50;;;3.40;99.90;;;;;;4983826;28;20146;-68
2022/01/23 06:11:55;;;;;;;39.13;18.98;;;3.40;99.90;;;;;;5005231;28;20054;-68
2022/01/23 06:14:23;;;;;;;36.25;18.85;;;3.40;99.90;;;;;;4999773;28;20515;-69
2022/01/23 06:16:50;;;;;;;34.67;18.15;;;3.50;99.90;;;;;;5021858;28;20424;-69
2022/01/23 06:19:38;;;;;;;36.65;18.65;;;3.50;99.90;;;;;;5023697;28;20515;-68
2022/01/23 06:22:46;;;;;;;34.22;17.52;;;3.50;99.90;;;;;;5025690;28;20127;-68
2022/01/23 06:25:36;;;;;;;35.22;18.73;;;3.50;99.90;;;;;;5003108;28;20049;-68
2022/01/23 06:28:14;;;;;;;34.53;17.50;;;3.50;99.90;;;;;;5026941;28;20139;-68
2022/01/23 06:30:42;;;;;;;36.50;17.35;;;3.50;99.90;;;;;;5016059;28;21675;-68
2022/01/23 06:33:09;;;;;;;34.95;17.50;;;3.50;99.90;;;;;;5029606;28;20053;-67
2022/01/23 06:35:37;;;;;;;40.08;19.77;;;3.60;99.90;;;;;;5031206;28;20048;-68
2022/01/23 06:38:04;;;;;;;37.17;18.33;;;3.50;99.90;;;;;;5027414;28;20067;-68
2022/01/23 06:40:32;;;;;;;33.58;17.55;;;3.50;99.90;;;;;;5021534;28;20044;-68
2022/01/23 06:43:22;;;;;;;37.50;18.50;;;3.60;99.90;;;;;;5023178;28;20107;-68
2022/01/23 06:45:59;;;;;;;35.47;17.80;;;3.60;99.90;;;;;;5028625;28;20689;-69
2022/01/23 06:48:27;;;;;;;35.65;18.30;;;3.60;99.90;;;;;;5023987;28;20049;-69
2022/01/23 06:50:55;;;;;;;36.33;17.77;;;3.60;99.90;;;;;;5023510;28;20045;-69
2022/01/23 06:53:22;;;;;;;40.20;19.75;;;3.60;99.90;;;;;;5030635;28;20052;-69
2022/01/23 06:55:51;;;;;;;34.40;17.88;;;3.60;99.90;;;;;;5050842;28;20041;-68
2022/01/23 06:58:19;;;;;;;34.67;17.75;;;3.60;99.90;;;;;;5022371;28;20042;-68
2022/01/23 07:00:46;;;;;;;36.72;18.17;;;3.60;99.90;;;;;;5028335;28;20593;-68
2022/01/23 07:03:46;;;;;;;33.35;16.77;;;3.50;99.90;;;;;;5047346;28;20626;-68
2022/01/23 07:06:40;;;;;;;35.70;18.25;;;3.50;99.90;;;;;;5030500;28;20597;-70
2022/01/23 07:09:22;;;;;;;33.05;17.85;;;3.50;99.90;;;;;;5047377;28;20048;-69
2022/01/23 07:12:15;;;;;;;36.50;18.08;;;3.50;99.90;;;;;;5018780;28;20609;-68
2022/01/23 07:15:01;;;;;;;35.75;18.17;;;3.50;99.90;;;;;;5040437;28;20037;-68
2022/01/23 07:17:47;;;;;;;36.08;18.05;;;3.50;99.90;;;;;;5045483;28;20112;-68
2022/01/23 07:20:27;;;;;;;32.88;17.70;;;3.50;99.90;;;;;;5013505;28;20631;-68
2022/01/23 07:23:00;;;;;;;35.50;19.30;;;3.50;99.90;;;;;;5048698;28;20511;-67
2022/01/23 07:25:28;;;;;;;35.47;18.05;;;3.50;99.90;;;;;;5028486;28;20431;-68
2022/01/23 07:27:58;;;;;;;38.58;18.83;;;3.40;99.90;;;;;;5027761;28;20042;-68
2022/01/23 07:32:53;;;;;;;39.30;18.27;;;3.50;99.90;;;;;;5029809;28;20056;-69
2022/01/23 07:35:21;;;;;;;34.60;17.52;;;3.50;99.90;;;;;;5044109;28;20095;-69
2022/01/23 07:37:48;;;;;;;34.72;17.13;;;3.60;99.90;;;;;;5044876;28;20111;-69
2022/01/23 07:40:22;;;;;;;35.60;17.17;;;3.60;99.90;;;;;;5035007;28;20056;-68
2022/01/23 07:42:53;;;;;;;37.97;18.40;;;3.60;99.90;;;;;;5030377;28;20037;-67
2022/01/23 07:45:39;;;;;;;34.72;16.80;;;3.60;99.90;;;;;;5024042;28;20053;-69
2022/01/23 07:48:42;;;;;;;38.97;18.55;;;3.60;99.90;;;;;;5032501;28;20041;-70
2022/01/23 07:51:41;;;;;;;40.08;18.73;;;3.60;99.90;;;;;;5025640;28;20058;-68
2022/01/23 07:54:35;;;;;;;36.38;17.52;;;3.70;99.90;;;;;;5007557;28;20067;-68
2022/01/23 07:57:21;;;;;;;36.92;17.65;;;3.70;99.90;;;;;;5037478;28;20141;-70
2022/01/23 07:59:49;;;;;;;33.08;17.02;;;3.70;99.90;;;;;;5026388;28;20053;-69
2022/01/23 08:02:41;;;;;;;34.50;17.55;;;3.80;99.90;;;;;;5026592;28;20519;-69
2022/01/23 08:05:24;;;;;;;34.53;17.95;;;3.80;99.90;;;;;;5026992;28;20045;-69
2022/01/23 08:08:10;;;;;;;34.25;17.25;;;3.90;99.90;;;;;;5027691;28;20070;-69
2022/01/23 08:11:00;;;;;;;35.47;17.58;;;3.90;99.90;;;;;;5022653;28;20472;-68
2022/01/23 08:13:27;;;;;;;39.10;17.98;;;4.00;99.90;;;;;;5030271;28;20409;-69
2022/01/23 08:15:55;;;;;;;31.60;16.35;;;4.00;99.90;;;;;;5030073;28;20100;-69
2022/01/23 08:18:22;;;;;;;31.45;16.33;;;4.10;99.90;;;;;;5030727;28;20088;-69
2022/01/23 08:20:50;;;;;;;33.50;16.15;;;4.20;99.90;;;;;;5027606;28;20404;-68
2022/01/23 08:23:21;;;;;;;35.42;18.48;;;4.10;99.90;;;;;;5000062;28;20049;-69
2022/01/23 08:25:50;;;;;;;32.95;16.80;;;4.20;99.90;;;;;;5030842;28;20041;-69
2022/01/23 08:28:17;;;;;;;31.77;16.77;;;4.20;99.90;;;;;;5032206;28;20136;-68
2022/01/23 08:30:45;;;;;;;30.50;15.82;;;4.20;99.90;;;;;;5036775;28;20045;-67
2022/01/23 08:33:12;;;;;;;29.70;16.05;;;4.20;99.90;;;;;;5032879;28;20057;-69
2022/01/23 08:35:42;;;;;;;28.08;14.70;;;4.20;99.90;;;;;;5036707;28;20420;-69
2022/01/23 08:38:10;;;;;;;31.90;15.57;;;4.20;99.90;;;;;;5039566;28;20046;-68
2022/01/23 08:43:11;;;;;;;32.00;15.70;;;4.30;99.90;;;;;;5042027;28;20064;-69
2022/01/23 08:45:39;;;;;;;29.20;14.98;;;4.40;99.90;;;;;;5037690;28;20128;-68
2022/01/23 08:48:07;;;;;;;29.85;16.60;;;4.40;99.90;;;;;;5023331;28;20609;-68
2022/01/23 08:50:35;;;;;;;31.10;15.68;;;4.50;99.90;;;;;;5024497;28;20046;-69
2022/01/23 08:53:03;;;;;;;28.95;15.65;;;4.50;99.90;;;;;;5034106;28;20352;-70
2022/01/23 08:55:30;;;;;;;27.30;13.90;;;4.50;99.90;;;;;;5039614;28;20037;-68
2022/01/23 08:57:57;;;;;;;29.63;15.00;;;4.60;99.90;;;;;;5035683;28;20042;-68
2022/01/23 09:00:28;;;;;;;27.88;14.07;;;4.70;99.90;;;;;;5025854;28;20046;-68
2022/01/23 09:02:56;;;;;;;33.67;16.40;;;4.60;99.90;;;;;;5033175;28;20056;-69
2022/01/23 09:05:25;;;;;;;32.15;16.23;;;4.60;99.90;;;;;;5035853;28;20053;-70
2022/01/23 09:07:52;;;;;;;30.35;15.75;;;4.60;99.90;;;;;;5035234;28;20569;-69
2022/01/23 09:10:28;;;;;;;29.73;14.32;;;4.70;99.90;;;;;;5039202;28;20049;-69
2022/01/23 09:13:11;;;;;;;27.73;14.48;;;4.70;99.90;;;;;;5034303;28;20063;-69
2022/01/23 09:15:38;;;;;;;28.13;14.90;;;4.80;99.90;;;;;;5038916;28;20811;-70
2022/01/23 09:18:06;;;;;;;30.15;15.60;;;4.80;99.90;;;;;;5041252;28;20055;-69
2022/01/23 09:20:33;;;;;;;69.63;29.88;;;4.80;99.90;;;;;;5029564;28;20518;-69
2022/01/23 09:23:02;;;;;;;33.97;17.55;;;4.90;99.90;;;;;;5031107;28;20049;-69
2022/01/23 09:25:29;;;;;;;34.28;17.38;;;4.80;99.90;;;;;;5033480;28;20396;-68
2022/01/23 09:28:03;;;;;;;25.77;13.18;;;4.90;99.90;;;;;;5030723;28;20045;-69
2022/01/23 09:30:35;;;;;;;25.83;12.80;;;5.00;99.90;;;;;;5031925;28;20076;-69
2022/01/23 09:33:03;;;;;;;26.20;13.98;;;5.10;99.90;;;;;;5030970;28;20056;-69
2022/01/23 09:35:31;;;;;;;26.42;14.18;;;5.20;99.90;;;;;;5030828;28;20127;-70
2022/01/23 09:37:58;;;;;;;23.30;11.80;;;5.20;99.90;;;;;;5039112;28;20120;-69
2022/01/23 09:40:26;;;;;;;22.58;12.85;;;5.20;99.90;;;;;;5039858;28;20045;-69
2022/01/23 09:43:07;;;;;;;21.50;12.07;;;5.40;99.90;;;;;;5031765;28;20060;-69
2022/01/23 09:45:34;;;;;;;22.93;12.40;;;5.50;99.90;;;;;;5042300;28;20172;-69
2022/01/23 09:48:03;;;;;;;21.17;11.77;;;5.70;99.90;;;;;;5028527;28;20160;-69
2022/01/23 09:50:34;;;;;;;22.88;11.80;;;5.80;99.90;;;;;;5030246;28;20045;-68
2022/01/23 09:53:01;;;;;;;19.85;10.82;;;5.80;99.90;;;;;;5035004;28;20041;-68
2022/01/23 09:55:31;;;;;;;23.67;12.18;;;5.80;99.90;;;;;;5034029;28;20135;-69
2022/01/23 09:58:00;;;;;;;23.00;11.80;;;5.80;99.90;;;;;;5022490;28;20041;-68
2022/01/23 10:00:30;;;;;;;19.92;11.45;;;5.70;99.90;;;;;;5023408;28;20042;-69
2022/01/23 10:02:57;;;;;;;22.88;11.95;;;5.80;99.90;;;;;;5036938;28;20124;-69
2022/01/23 10:05:26;;;;;;;18.70;10.68;;;5.80;99.90;;;;;;5016429;28;20435;-66
2022/01/23 10:07:54;;;;;;;21.35;10.98;;;5.90;99.90;;;;;;5031023;28;20515;-69
2022/01/23 10:10:26;;;;;;;22.40;11.32;;;5.90;99.90;;;;;;5032994;28;20042;-69
2022/01/23 10:12:56;;;;;;;19.85;10.93;;;5.90;99.90;;;;;;5032511;28;20041;-68
2022/01/23 10:15:27;;;;;;;16.65;9.27;;;6.00;99.90;;;;;;5040483;28;20044;-68
2022/01/23 10:17:55;;;;;;;14.35;8.27;;;5.90;99.90;;;;;;5033074;28;20476;-67
2022/01/23 10:20:23;;;;;;;18.25;9.60;;;6.00;99.90;;;;;;5027717;28;20054;-67
2022/01/23 10:22:52;;;;;;;17.10;8.90;;;6.00;99.90;;;;;;5030392;28;20564;-68
2022/01/23 10:25:26;;;;;;;17.35;8.70;;;6.10;99.90;;;;;;5026936;28;20046;-67
2022/01/23 10:28:06;;;;;;;17.00;8.82;;;5.80;99.90;;;;;;5029385;28;20254;-67
2022/01/23 10:30:39;;;;;;;14.75;8.07;;;5.90;99.90;;;;;;5021624;28;20041;-68
2022/01/23 10:33:18;;;;;;;16.33;8.95;;;6.10;99.90;;;;;;5026959;28;20020;-68
2022/01/23 10:35:58;;;;;;;18.27;9.77;;;6.30;99.90;;;;;;5023237;28;20040;-67
2022/01/23 10:38:30;;;;;;;16.25;9.05;;;6.60;99.90;;;;;;5026229;28;20038;-67
2022/01/23 10:41:26;;;;;;;12.45;6.70;;;6.80;99.90;;;;;;4989888;28;20075;-68
2022/01/23 10:49:58;;;;;;;15.60;8.05;;;6.80;99.90;;;;;;5020574;28;20042;-67
2022/01/23 10:52:37;;;;;;;15.07;8.20;;;6.70;99.90;;;;;;5035063;28;20077;-68
2022/01/23 10:55:11;;;;;;;16.52;8.80;;;6.70;99.90;;;;;;5029013;28;20053;-67
2022/01/23 10:57:48;;;;;;;16.20;8.55;;;6.70;99.90;;;;;;5028997;28;20048;-68
2022/01/23 11:00:28;;;;;;;15.05;8.70;;;6.80;99.90;;;;;;5028595;28;20040;-67
2022/01/23 11:02:58;;;;;;;13.32;7.78;;;6.80;99.90;;;;;;5029574;28;20038;-68
2022/01/23 11:05:40;;;;;;;15.98;8.25;;;6.80;99.90;;;;;;5025534;28;20052;-67
2022/01/23 11:08:30;;;;;;;16.63;7.40;;;7.00;99.90;;;;;;5021330;28;20118;-67
2022/01/23 11:11:06;;;;;;;12.40;7.07;;;7.30;99.90;;;;;;5027761;28;20045;-69
2022/01/23 11:19:24;;;;;;;12.75;7.07;;;7.30;99.90;;;;;;5028749;28;20042;-66
2022/01/23 11:21:53;;;;;;;10.85;5.65;;;7.20;99.90;;;;;;5030598;28;20563;-67
2022/01/23 11:24:21;;;;;;;11.20;6.22;;;7.10;99.90;;;;;;5025807;28;20080;-68
2022/01/23 11:27:02;;;;;;;10.18;6.03;;;7.00;99.90;;;;;;5029219;28;20136;-68
2022/01/23 11:29:31;;;;;;;9.85;5.35;;;6.90;99.90;;;;;;5019345;28;20045;-67
2022/01/23 11:31:59;;;;;;;8.63;4.72;;;6.80;99.90;;;;;;5029669;28;20492;-67
2022/01/23 11:34:28;;;;;;;12.77;6.40;;;6.60;99.90;;;;;;5028024;28;20496;-67
2022/01/23 11:36:56;;;;;;;9.68;5.13;;;6.60;99.90;;;;;;5012549;28;20053;-66
2022/01/23 11:39:45;;;;;;;11.05;5.20;;;6.50;99.90;;;;;;5029629;28;20148;-66
2022/01/23 11:56:25;;;;;;;11.20;6.10;;;6.50;99.90;;;;;;5020118;28;20045;-67
2022/01/23 11:59:23;;;;;;;11.93;5.15;;;6.70;99.90;;;;;;5031485;28;20585;-67
2022/01/23 12:02:12;;;;;;;8.43;4.88;;;6.70;99.90;;;;;;5035280;28;20045;-67
2022/01/23 12:04:42;;;;;;;11.23;4.88;;;6.90;99.90;;;;;;5032234;28;20048;-67
2022/01/23 12:07:11;;;;;;;8.32;4.60;;;7.00;99.90;;;;;;5033340;28;20570;-67
2022/01/23 12:09:41;;;;;;;8.93;4.67;;;7.00;99.90;;;;;;5032216;28;20041;-67
2022/01/23 12:17:22;;;;;;;10.65;5.85;;;7.20;99.90;;;;;;5036801;28;20056;-67
2022/01/23 12:19:55;;;;;;;10.98;5.80;;;7.20;99.90;;;;;;5029599;28;20057;-67
2022/01/23 12:22:28;;;;;;;9.68;5.32;;;7.00;99.90;;;;;;5036335;28;20055;-66
2022/01/23 12:24:57;;;;;;;12.07;5.43;;;6.90;99.90;;;;;;5022323;28;20381;-67
2022/01/23 12:27:31;;;;;;;10.00;5.50;;;6.90;99.90;;;;;;5027330;28;20045;-67
2022/01/23 12:30:17;;;;;;;9.00;5.10;;;6.90;99.90;;;;;;5030901;28;20046;-67
2022/01/23 12:33:06;;;;;;;8.90;5.18;;;6.90;99.90;;;;;;5032948;28;19931;-67
2022/01/23 12:35:40;;;;;;;8.88;4.70;;;6.90;99.90;;;;;;5034601;28;20045;-68
2022/01/23 12:38:10;;;;;;;9.18;4.65;;;6.90;99.90;;;;;;5020631;28;20523;-68
2022/01/23 12:40:46;;;;;;;7.80;4.23;;;6.90;99.90;;;;;;5027203;28;20427;-69
2022/01/23 12:43:26;;;;;;;9.25;4.70;;;6.80;99.90;;;;;;5032909;28;20065;-69
2022/01/23 12:46:04;;;;;;;7.50;4.07;;;6.90;99.90;;;;;;5030255;28;20041;-68
2022/01/23 12:48:36;;;;;;;7.75;4.03;;;6.90;99.90;;;;;;5029862;28;20112;-67
2022/01/23 12:51:32;;;;;;;7.70;4.63;;;7.00;99.90;;;;;;5036136;28;20079;-67
2022/01/23 12:54:00;;;;;;;7.53;4.35;;;7.00;99.90;;;;;;5027424;28;20358;-67
2022/01/23 12:56:34;;;;;;;9.07;4.50;;;7.10;99.90;;;;;;5032757;28;20037;-67
2022/01/23 12:59:12;;;;;;;7.80;3.83;;;7.00;99.90;;;;;;5031114;28;20071;-67
2022/01/23 13:01:43;;;;;;;7.50;4.10;;;6.90;99.90;;;;;;5031745;28;20045;-67
2022/01/23 13:04:11;;;;;;;8.27;4.93;;;7.00;99.90;;;;;;5030214;28;20500;-68
2022/01/23 13:06:58;;;;;;;9.57;4.05;;;7.00;99.90;;;;;;5029543;28;20715;-66
2022/01/23 13:09:34;;;;;;;7.17;4.20;;;6.90;99.90;;;;;;5034155;28;20416;-68
2022/01/23 13:14:43;;;;;;;7.05;4.20;;;6.80;99.90;;;;;;5030629;28;20045;-67
2022/01/23 13:17:30;;;;;;;6.93;3.70;;;6.70;99.90;;;;;;5040288;28;20523;-66
2022/01/23 13:29:01;;;;;;;6.18;3.45;;;6.40;99.90;;;;;;5036600;28;20064;-67
2022/01/23 13:31:06;;;;;;;8.57;4.50;;;6.40;99.90;;;;;;5041542;28;20048;-67
2022/01/23 13:33:37;;;;;;;7.15;3.90;;;6.30;99.90;;;;;;5015814;28;20060;-67
2022/01/23 13:36:08;;;;;;;7.47;4.10;;;6.30;99.90;;;;;;5029761;28;20505;-66
2022/01/23 13:38:37;;;;;;;7.47;4.20;;;6.40;99.90;;;;;;5030293;28;20041;-67
2022/01/23 13:41:24;;;;;;;6.78;3.70;;;6.40;99.90;;;;;;5029748;28;20042;-68
2022/01/23 13:52:56;;;;;;;8.60;4.80;;;6.20;99.90;;;;;;5031141;28;20049;-67
2022/01/23 13:58:15;;;;;;;;;;;6.10;99.90;;;;;;5018662;28;20113;-67
2022/01/23 14:00:35;;;;;;;7.70;4.35;;;6.10;99.90;;;;;;5017405;28;19931;-68
2022/01/23 14:03:03;;;;;;;;;;;6.10;99.90;;;;;;5029898;28;20517;-67
2022/01/23 14:05:32;;;;;;;6.55;3.80;;;6.00;99.90;;;;;;5029538;28;20342;-67
2022/01/23 14:08:00;;;;;;;;;;;6.00;99.90;;;;;;5026389;28;20085;-67
2022/01/23 14:10:27;;;;;;;;;;;5.90;99.90;;;;;;5028485;28;19925;-67
2022/01/23 14:13:03;;;;;;;;;;;5.90;99.90;;;;;;5027140;28;20719;-66
2022/01/23 14:15:31;;;;;;;;;;;5.90;99.90;;;;;;5027173;28;20430;-67
2022/01/23 14:17:58;;;;;;;;;;;5.80;99.90;;;;;;5028608;28;20479;-67
2022/01/23 14:20:26;;;;;;;7.15;4.20;;;5.80;99.90;;;;;;5032297;28;19925;-67
2022/01/23 14:22:55;;;;;;;5.90;3.70;;;5.90;99.90;;;;;;5033618;28;19983;-68
2022/01/23 14:25:27;;;;;;;6.57;3.75;;;5.90;99.90;;;;;;5037394;28;19928;-67
2022/01/23 14:28:10;;;;;;;5.90;3.05;;;5.90;99.90;;;;;;5023735;28;20418;-68
2022/01/23 14:30:45;;;;;;;6.40;3.05;;;6.00;99.90;;;;;;5029505;28;20045;-68
2022/01/23 14:33:18;;;;;;;5.13;2.80;;;5.90;99.90;;;;;;5029930;28;20484;-68
2022/01/23 14:35:46;;;;;;;6.87;3.93;;;5.90;99.90;;;;;;5027558;28;20049;-68
2022/01/23 14:38:22;;;;;;;10.05;5.40;;;5.90;99.90;;;;;;5029373;28;20340;-68
2022/01/23 14:41:09;;;;;;;7.82;4.07;;;5.90;99.90;;;;;;5029644;28;19964;-68
2022/01/23 14:43:41;;;;;;;6.22;3.58;;;5.90;99.90;;;;;;5037483;28;20405;-68
2022/01/23 14:46:11;;;;;;;6.15;3.20;;;5.80;99.90;;;;;;5028319;28;20451;-66
2022/01/23 14:48:45;;;;;;;7.33;3.30;;;5.80;99.90;;;;;;5028968;28;20124;-68
2022/01/23 14:51:19;;;;;;;5.90;3.50;;;5.80;99.90;;;;;;5036916;28;20056;-68
2022/01/23 14:53:47;;;;;;;;;;;5.80;99.90;;;;;;5037377;28;20015;-68
2022/01/23 14:56:14;;;;;;;;;;;5.80;99.90;;;;;;5026975;28;19947;-67
2022/01/23 14:58:43;;;;;;;7.80;3.95;;;5.80;99.90;;;;;;5029439;28;20486;-68
2022/01/23 15:01:15;;;;;;;;;;;5.80;99.90;;;;;;5038612;28;20048;-68
2022/01/23 15:03:44;;;;;;;;;;;5.70;99.90;;;;;;5031783;28;20051;-67
2022/01/23 15:06:28;;;;;;;7.50;3.80;;;5.80;99.90;;;;;;5022831;28;20463;-68
2022/01/23 15:09:08;;;;;;;6.30;3.30;;;5.70;99.90;;;;;;5036486;28;20323;-69
2022/01/23 15:11:35;;;;;;;8.03;3.77;;;5.70;99.90;;;;;;5026873;28;20539;-68
2022/01/23 15:14:06;;;;;;;7.55;4.40;;;5.70;99.90;;;;;;5024635;28;20574;-67
2022/01/23 15:16:33;;;;;;;;;;;5.70;99.90;;;;;;5019354;28;20132;-68
2022/01/23 15:19:01;;;;;;;11.10;4.80;;;5.60;99.90;;;;;;5036061;28;20144;-68
2022/01/23 15:21:29;;;;;;;;;;;5.60;99.90;;;;;;5038735;28;25055;-68
2022/01/23 15:23:56;;;;;;;;;;;5.60;99.90;;;;;;5038811;28;20018;-68
2022/01/23 15:26:29;;;;;;;9.63;4.60;;;5.60;99.90;;;;;;5040434;28;19921;-68
2022/01/23 15:28:57;;;;;;;7.97;4.38;;;5.50;99.90;;;;;;5041573;28;20045;-67
2022/01/23 15:31:24;;;;;;;6.95;4.25;;;5.50;99.90;;;;;;5026880;28;20504;-67
2022/01/23 15:33:52;;;;;;;9.93;4.80;;;5.40;99.90;;;;;;5028345;28;19929;-67
2022/01/23 15:36:21;;;;;;;8.50;4.90;;;5.40;99.90;;;;;;5037321;28;20540;-66
2022/01/23 15:38:48;;;;;;;7.40;4.70;;;5.30;99.90;;;;;;5027082;28;20048;-69
2022/01/23 15:41:16;;;;;;;7.93;4.88;;;5.30;99.90;;;;;;5016330;28;20078;-67
2022/01/23 15:43:44;;;;;;;7.43;4.68;;;5.30;99.90;;;;;;5028279;28;20052;-69
2022/01/23 15:46:13;;;;;;;9.60;4.90;;;5.20;99.90;;;;;;5040079;28;20703;-68
2022/01/23 15:48:42;;;;;;;8.00;4.80;;;5.20;99.90;;;;;;5034691;28;25077;-68
2022/01/23 15:51:09;;;;;;;12.33;6.50;;;5.10;99.90;;;;;;5011962;28;19996;-68
2022/01/23 15:53:37;;;;;;;10.02;5.65;;;5.10;99.90;;;;;;5030936;28;20123;-68
2022/01/23 15:56:04;;;;;;;11.95;6.47;;;5.00;99.90;;;;;;5031215;28;20385;-67
2022/01/23 15:58:32;;;;;;;9.43;5.20;;;5.00;99.90;;;;;;5045034;28;20049;-68
2022/01/23 16:01:00;;;;;;;9.75;6.63;;;5.00;99.90;;;;;;5001084;28;20076;-67
2022/01/23 16:03:28;;;;;;;9.02;5.35;;;5.00;99.90;;;;;;5025217;28;20132;-67
2022/01/23 16:05:56;;;;;;;11.48;6.10;;;5.00;99.90;;;;;;5006205;28;20038;-68
2022/01/23 16:08:25;;;;;;;11.35;5.93;;;5.00;99.90;;;;;;5030096;28;20045;-68
2022/01/23 16:10:53;;;;;;;13.45;5.38;;;5.00;99.90;;;;;;5029273;28;20111;-68
2022/01/23 16:13:20;;;;;;;10.02;5.63;;;5.00;99.90;;;;;;5042938;28;20055;-68
2022/01/23 16:15:48;;;;;;;14.32;7.28;;;5.00;99.90;;;;;;5035793;28;20336;-67
2022/01/23 16:18:15;;;;;;;10.75;6.47;;;4.90;99.90;;;;;;5031764;28;20073;-66
2022/01/23 16:20:43;;;;;;;11.52;6.57;;;4.90;99.90;;;;;;5012619;28;20045;-67
2022/01/23 16:23:11;;;;;;;10.50;5.72;;;4.90;99.90;;;;;;5024491;28;20041;-67
2022/01/23 16:25:58;;;;;;;9.43;4.80;;;4.90;99.90;;;;;;5026737;28;20041;-68
2022/01/23 16:28:26;;;;;;;11.25;5.15;;;4.80;99.90;;;;;;5030741;28;20057;-67
2022/01/23 16:30:56;;;;;;;8.30;5.10;;;4.80;99.90;;;;;;5037379;28;20005;-69
2022/01/23 16:33:24;;;;;;;10.07;5.70;;;4.80;99.90;;;;;;5033864;28;20053;-67
2022/01/23 16:35:52;;;;;;;11.03;5.60;;;4.80;99.90;;;;;;5032755;28;20042;-69